sensor_id;sensor_type;location;lat;lon;timestamp;P1;durP1;ratioP1;P2;durP2;ratioP2
76814;SDS011;65768;49.906;19.384;2023-01-15T00:01:47;3.00;;;0.70;;
76814;SDS011;65768;49.906;19.384;2023-01-15T00:04:15;2.90;;;0.90;;
76814;SDS011;65768;49.906;19.384;2023-01-15T00:06:44;2.00;;;0.80;;
76814;SDS011;65768;49.906;19.384;2023-01-15T00:09:13;1.70;;;0.70;;
76814;SDS011;65768;49.906;19.384;2023-01-15T00:11:42;4.50;;;0.70;;
76814;SDS011;65768;49.906;19.384;2023-01-15T00:14:10;1.00;;;0.50;;
76814;SDS011;65768;49.906;19.384;2023-01-15T00:16:39;3.10;;;0.80;;
76814;SDS011;65768;49.906;19.384;2023-01-15T00:19:08;2.90;;;0.60;;
76814;SDS011;65768;49.906;19.384;2023-01-15T00:21:38;1.60;;;0.60;;
76814;SDS011;65768;49.906;19.384;2023-01-15T00:24:07;2.30;;;1.00;;
76814;SDS011;65768;49.906;19.384;2023-01-15T00:26:54;4.10;;;0.90;;
76814;SDS011;65768;49.906;19.384;2023-01-15T00:29:41;2.70;;;0.80;;
76814;SDS011;65768;49.906;19.384;2023-01-15T00:32:09;2.20;;;1.00;;
76814;SDS011;65768;49.906;19.384;2023-01-15T00:34:37;1.80;;;0.60;;
76814;SDS011;65768;49.906;19.384;2023-01-15T00:37:05;2.00;;;0.90;;
76814;SDS011;65768;49.906;19.384;2023-01-15T00:39:33;3.40;;;1.10;;
76814;SDS011;65768;49.906;19.384;2023-01-15T00:42:02;3.40;;;1.10;;
76814;SDS011;65768;49.906;19.384;2023-01-15T00:44:30;1.50;;;0.50;;
76814;SDS011;65768;49.906;19.384;2023-01-15T00:47:00;4.80;;;0.90;;
76814;SDS011;65768;49.906;19.384;2023-01-15T00:49:28;1.50;;;0.50;;
76814;SDS011;65768;49.906;19.384;2023-01-15T00:51:56;3.80;;;0.80;;
76814;SDS011;65768;49.906;19.384;2023-01-15T00:54:24;3.90;;;1.10;;
76814;SDS011;65768;49.906;19.384;2023-01-15T00:56:52;1.70;;;0.70;;
76814;SDS011;65768;49.906;19.384;2023-01-15T00:59:20;2.60;;;0.70;;
76814;SDS011;65768;49.906;19.384;2023-01-15T01:01:48;2.00;;;0.80;;
76814;SDS011;65768;49.906;19.384;2023-01-15T01:04:16;2.00;;;0.60;;
76814;SDS011;65768;49.906;19.384;2023-01-15T01:06:44;3.90;;;0.80;;
76814;SDS011;65768;49.906;19.384;2023-01-15T01:09:13;2.40;;;0.70;;
76814;SDS011;65768;49.906;19.384;2023-01-15T01:11:42;2.60;;;0.70;;
76814;SDS011;65768;49.906;19.384;2023-01-15T01:14:10;4.00;;;0.90;;
76814;SDS011;65768;49.906;19.384;2023-01-15T01:16:39;2.50;;;0.70;;
76814;SDS011;65768;49.906;19.384;2023-01-15T01:19:12;2.60;;;0.70;;
76814;SDS011;65768;49.906;19.384;2023-01-15T01:21:45;2.60;;;0.80;;
76814;SDS011;65768;49.906;19.384;2023-01-15T01:24:15;1.80;;;0.60;;
76814;SDS011;65768;49.906;19.384;2023-01-15T04:18:10;2.10;;;0.90;;
76814;SDS011;65768;49.906;19.384;2023-01-15T04:20:38;3.30;;;1.10;;
76814;SDS011;65768;49.906;19.384;2023-01-15T04:23:06;2.00;;;0.90;;
76814;SDS011;65768;49.906;19.384;2023-01-15T04:25:34;2.20;;;1.00;;
76814;SDS011;65768;49.906;19.384;2023-01-15T04:28:02;3.50;;;1.00;;
76814;SDS011;65768;49.906;19.384;2023-01-15T04:30:30;1.60;;;0.80;;
76814;SDS011;65768;49.906;19.384;2023-01-15T04:32:58;3.00;;;1.30;;
76814;SDS011;65768;49.906;19.384;2023-01-15T04:35:26;2.10;;;0.90;;
76814;SDS011;65768;49.906;19.384;2023-01-15T04:37:57;3.10;;;1.10;;
76814;SDS011;65768;49.906;19.384;2023-01-15T04:40:26;2.10;;;0.80;;
76814;SDS011;65768;49.906;19.384;2023-01-15T04:43:13;2.20;;;1.00;;
76814;SDS011;65768;49.906;19.384;2023-01-15T04:46:00;2.50;;;1.20;;
76814;SDS011;65768;49.906;19.384;2023-01-15T04:48:28;4.20;;;1.10;;
76814;SDS011;65768;49.906;19.384;2023-01-15T04:50:56;2.90;;;1.20;;
76814;SDS011;65768;49.906;19.384;2023-01-15T04:53:24;1.30;;;0.60;;
76814;SDS011;65768;49.906;19.384;2023-01-15T04:55:58;2.30;;;1.10;;
76814;SDS011;65768;49.906;19.384;2023-01-15T04:58:28;2.80;;;1.20;;
76814;SDS011;65768;49.906;19.384;2023-01-15T05:00:56;2.60;;;1.20;;
76814;SDS011;65768;49.906;19.384;2023-01-15T05:03:27;1.80;;;1.00;;
76814;SDS011;65768;49.906;19.384;2023-01-15T05:06:00;2.90;;;1.30;;
76814;SDS011;65768;49.906;19.384;2023-01-15T05:08:29;1.60;;;1.00;;
76814;SDS011;65768;49.906;19.384;2023-01-15T05:11:04;4.70;;;1.50;;
76814;SDS011;65768;49.906;19.384;2023-01-15T05:13:33;2.50;;;1.00;;
76814;SDS011;65768;49.906;19.384;2023-01-15T05:16:25;2.20;;;1.00;;
76814;SDS011;65768;49.906;19.384;2023-01-15T05:18:52;3.00;;;1.40;;
76814;SDS011;65768;49.906;19.384;2023-01-15T05:21:22;2.70;;;1.20;;
76814;SDS011;65768;49.906;19.384;2023-01-15T05:23:53;2.40;;;1.00;;
76814;SDS011;65768;49.906;19.384;2023-01-15T05:26:23;2.50;;;1.30;;
76814;SDS011;65768;49.906;19.384;2023-01-15T05:28:52;4.00;;;1.10;;
76814;SDS011;65768;49.906;19.384;2023-01-15T05:31:22;3.80;;;1.20;;
76814;SDS011;65768;49.906;19.384;2023-01-15T05:33:51;3.40;;;1.00;;
76814;SDS011;65768;49.906;19.384;2023-01-15T05:36:20;2.70;;;1.00;;
76814;SDS011;65768;49.906;19.384;2023-01-15T05:38:52;2.90;;;1.20;;
76814;SDS011;65768;49.906;19.384;2023-01-15T05:41:21;2.30;;;0.80;;
76814;SDS011;65768;49.906;19.384;2023-01-15T05:44:09;2.10;;;1.00;;
76814;SDS011;65768;49.906;19.384;2023-01-15T05:46:39;4.10;;;1.10;;
76814;SDS011;65768;49.906;19.384;2023-01-15T05:49:10;1.90;;;0.90;;
76814;SDS011;65768;49.906;19.384;2023-01-15T05:51:40;2.80;;;1.00;;
76814;SDS011;65768;49.906;19.384;2023-01-15T05:54:14;2.10;;;0.80;;
76814;SDS011;65768;49.906;19.384;2023-01-15T05:56:44;3.30;;;1.30;;
76814;SDS011;65768;49.906;19.384;2023-01-15T05:59:12;3.40;;;1.10;;
76814;SDS011;65768;49.906;19.384;2023-01-15T06:01:41;2.40;;;1.00;;
76814;SDS011;65768;49.906;19.384;2023-01-15T06:04:10;1.90;;;0.80;;
76814;SDS011;65768;49.906;19.384;2023-01-15T06:06:41;3.00;;;0.90;;
76814;SDS011;65768;49.906;19.384;2023-01-15T06:09:09;2.60;;;0.90;;
76814;SDS011;65768;49.906;19.384;2023-01-15T06:11:37;2.50;;;0.90;;
76814;SDS011;65768;49.906;19.384;2023-01-15T06:14:06;2.30;;;1.00;;
76814;SDS011;65768;49.906;19.384;2023-01-15T06:16:34;2.90;;;0.90;;
76814;SDS011;65768;49.906;19.384;2023-01-15T06:19:03;2.30;;;1.00;;
76814;SDS011;65768;49.906;19.384;2023-01-15T06:21:33;3.00;;;0.80;;
76814;SDS011;65768;49.906;19.384;2023-01-15T06:24:02;3.90;;;1.30;;
76814;SDS011;65768;49.906;19.384;2023-01-15T06:26:30;2.40;;;0.90;;
76814;SDS011;65768;49.906;19.384;2023-01-15T06:28:58;3.30;;;1.30;;
76814;SDS011;65768;49.906;19.384;2023-01-15T06:31:26;2.60;;;1.20;;
76814;SDS011;65768;49.906;19.384;2023-01-15T06:33:54;1.80;;;1.00;;
76814;SDS011;65768;49.906;19.384;2023-01-15T06:36:23;2.00;;;0.80;;
76814;SDS011;65768;49.906;19.384;2023-01-15T06:38:52;2.40;;;1.00;;
76814;SDS011;65768;49.906;19.384;2023-01-15T06:41:21;2.60;;;1.10;;
76814;SDS011;65768;49.906;19.384;2023-01-15T06:44:11;1.70;;;1.00;;
76814;SDS011;65768;49.906;19.384;2023-01-15T06:47:00;2.10;;;0.90;;
76814;SDS011;65768;49.906;19.384;2023-01-15T06:49:49;2.30;;;0.80;;
76814;SDS011;65768;49.906;19.384;2023-01-15T06:52:19;4.60;;;1.20;;
76814;SDS011;65768;49.906;19.384;2023-01-15T06:54:48;3.10;;;1.10;;
76814;SDS011;65768;49.906;19.384;2023-01-15T06:57:17;3.00;;;1.30;;
76814;SDS011;65768;49.906;19.384;2023-01-15T06:59:48;2.70;;;1.00;;
76814;SDS011;65768;49.906;19.384;2023-01-15T07:02:19;2.30;;;1.00;;
76814;SDS011;65768;49.906;19.384;2023-01-15T07:04:48;2.10;;;1.10;;
76814;SDS011;65768;49.906;19.384;2023-01-15T07:07:17;3.30;;;1.10;;
76814;SDS011;65768;49.906;19.384;2023-01-15T07:09:46;2.70;;;1.00;;
76814;SDS011;65768;49.906;19.384;2023-01-15T07:12:14;1.80;;;1.10;;
76814;SDS011;65768;49.906;19.384;2023-01-15T07:14:43;3.00;;;1.40;;
76814;SDS011;65768;49.906;19.384;2023-01-15T07:17:11;3.40;;;1.50;;
76814;SDS011;65768;49.906;19.384;2023-01-15T07:19:40;2.30;;;1.10;;
76814;SDS011;65768;49.906;19.384;2023-01-15T07:22:08;2.80;;;1.60;;
76814;SDS011;65768;49.906;19.384;2023-01-15T07:24:37;2.50;;;1.10;;
76814;SDS011;65768;49.906;19.384;2023-01-15T07:27:06;2.30;;;1.10;;
76814;SDS011;65768;49.906;19.384;2023-01-15T07:29:34;2.80;;;1.30;;
76814;SDS011;65768;49.906;19.384;2023-01-15T07:32:02;2.10;;;1.00;;
76814;SDS011;65768;49.906;19.384;2023-01-15T07:34:30;3.70;;;1.40;;
76814;SDS011;65768;49.906;19.384;2023-01-15T07:36:58;3.80;;;1.40;;
76814;SDS011;65768;49.906;19.384;2023-01-15T07:39:26;4.80;;;1.60;;
76814;SDS011;65768;49.906;19.384;2023-01-15T07:41:55;3.10;;;1.20;;
76814;SDS011;65768;49.906;19.384;2023-01-15T07:44:41;3.00;;;1.40;;
76814;SDS011;65768;49.906;19.384;2023-01-15T07:47:28;2.80;;;1.00;;
76814;SDS011;65768;49.906;19.384;2023-01-15T07:50:19;3.10;;;1.10;;
76814;SDS011;65768;49.906;19.384;2023-01-15T07:52:50;2.80;;;1.10;;
76814;SDS011;65768;49.906;19.384;2023-01-15T07:55:19;3.60;;;1.10;;
76814;SDS011;65768;49.906;19.384;2023-01-15T07:57:48;4.00;;;1.80;;
76814;SDS011;65768;49.906;19.384;2023-01-15T08:00:21;2.70;;;1.60;;
76814;SDS011;65768;49.906;19.384;2023-01-15T08:02:51;4.40;;;1.90;;
76814;SDS011;65768;49.906;19.384;2023-01-15T08:05:19;4.80;;;2.00;;
76814;SDS011;65768;49.906;19.384;2023-01-15T08:07:48;10.50;;;5.10;;
76814;SDS011;65768;49.906;19.384;2023-01-15T08:10:17;11.70;;;3.80;;
76814;SDS011;65768;49.906;19.384;2023-01-15T08:12:47;3.30;;;1.30;;
76814;SDS011;65768;49.906;19.384;2023-01-15T08:15:38;2.80;;;1.20;;
76814;SDS011;65768;49.906;19.384;2023-01-15T08:18:09;4.00;;;1.50;;
76814;SDS011;65768;49.906;19.384;2023-01-15T08:20:40;4.00;;;1.40;;
76814;SDS011;65768;49.906;19.384;2023-01-15T08:23:09;3.00;;;1.20;;
76814;SDS011;65768;49.906;19.384;2023-01-15T08:25:37;3.80;;;1.30;;
76814;SDS011;65768;49.906;19.384;2023-01-15T08:28:06;2.80;;;1.50;;
76814;SDS011;65768;49.906;19.384;2023-01-15T08:30:34;3.10;;;1.50;;
76814;SDS011;65768;49.906;19.384;2023-01-15T08:33:03;2.20;;;1.20;;
76814;SDS011;65768;49.906;19.384;2023-01-15T08:35:31;3.40;;;1.50;;
76814;SDS011;65768;49.906;19.384;2023-01-15T08:38:07;3.40;;;1.30;;
76814;SDS011;65768;49.906;19.384;2023-01-15T08:40:35;4.00;;;1.30;;
76814;SDS011;65768;49.906;19.384;2023-01-15T08:43:27;2.80;;;0.90;;
76814;SDS011;65768;49.906;19.384;2023-01-15T08:45:58;2.50;;;1.30;;
76814;SDS011;65768;49.906;19.384;2023-01-15T08:48:28;2.90;;;1.00;;
76814;SDS011;65768;49.906;19.384;2023-01-15T08:50:58;3.30;;;1.20;;
76814;SDS011;65768;49.906;19.384;2023-01-15T08:53:31;4.50;;;1.20;;
76814;SDS011;65768;49.906;19.384;2023-01-15T08:56:00;2.70;;;1.50;;
76814;SDS011;65768;49.906;19.384;2023-01-15T08:58:29;2.70;;;1.10;;
76814;SDS011;65768;49.906;19.384;2023-01-15T09:01:05;2.80;;;1.10;;
76814;SDS011;65768;49.906;19.384;2023-01-15T09:03:36;3.40;;;1.30;;
76814;SDS011;65768;49.906;19.384;2023-01-15T09:06:05;2.20;;;1.10;;
76814;SDS011;65768;49.906;19.384;2023-01-15T09:08:33;3.00;;;1.50;;
76814;SDS011;65768;49.906;19.384;2023-01-15T09:11:02;3.70;;;1.50;;
76814;SDS011;65768;49.906;19.384;2023-01-15T09:13:32;3.00;;;1.30;;
76814;SDS011;65768;49.906;19.384;2023-01-15T09:16:00;3.20;;;1.30;;
76814;SDS011;65768;49.906;19.384;2023-01-15T09:18:30;4.20;;;1.60;;
76814;SDS011;65768;49.906;19.384;2023-01-15T09:20:58;3.80;;;1.70;;
76814;SDS011;65768;49.906;19.384;2023-01-15T09:23:26;8.10;;;3.10;;
76814;SDS011;65768;49.906;19.384;2023-01-15T09:25:55;5.30;;;2.90;;
76814;SDS011;65768;49.906;19.384;2023-01-15T09:28:27;3.80;;;1.50;;
76814;SDS011;65768;49.906;19.384;2023-01-15T09:30:56;4.00;;;1.70;;
76814;SDS011;65768;49.906;19.384;2023-01-15T09:33:26;4.40;;;2.20;;
76814;SDS011;65768;49.906;19.384;2023-01-15T09:35:54;4.80;;;2.30;;
76814;SDS011;65768;49.906;19.384;2023-01-15T09:38:22;4.40;;;1.70;;
76814;SDS011;65768;49.906;19.384;2023-01-15T09:43:39;4.10;;;1.50;;
76814;SDS011;65768;49.906;19.384;2023-01-15T09:46:33;3.80;;;1.20;;
76814;SDS011;65768;49.906;19.384;2023-01-15T09:56:58;10.50;;;3.80;;
76814;SDS011;65768;49.906;19.384;2023-01-15T09:59:29;5.90;;;2.10;;
76814;SDS011;65768;49.906;19.384;2023-01-15T10:02:03;6.20;;;2.30;;
76814;SDS011;65768;49.906;19.384;2023-01-15T10:04:42;4.20;;;1.70;;
76814;SDS011;65768;49.906;19.384;2023-01-15T10:10:01;5.10;;;1.80;;
76814;SDS011;65768;49.906;19.384;2023-01-15T10:12:32;3.70;;;1.70;;
76814;SDS011;65768;49.906;19.384;2023-01-15T10:17:54;5.30;;;1.90;;
76814;SDS011;65768;49.906;19.384;2023-01-15T10:20:35;4.10;;;2.00;;
76814;SDS011;65768;49.906;19.384;2023-01-15T10:28:56;6.00;;;2.00;;
76814;SDS011;65768;49.906;19.384;2023-01-15T10:31:34;5.60;;;1.40;;
76814;SDS011;65768;49.906;19.384;2023-01-15T10:36:50;4.30;;;1.30;;
76814;SDS011;65768;49.906;19.384;2023-01-15T10:42:12;2.30;;;0.90;;
76814;SDS011;65768;49.906;19.384;2023-01-15T10:51:39;3.30;;;1.50;;
76814;SDS011;65768;49.906;19.384;2023-01-15T10:57:06;2.90;;;1.30;;
76814;SDS011;65768;49.906;19.384;2023-01-15T10:59:50;1.70;;;0.80;;
76814;SDS011;65768;49.906;19.384;2023-01-15T11:02:29;4.20;;;1.60;;
76814;SDS011;65768;49.906;19.384;2023-01-15T11:05:05;4.90;;;2.00;;
76814;SDS011;65768;49.906;19.384;2023-01-15T11:07:42;3.20;;;1.40;;
76814;SDS011;65768;49.906;19.384;2023-01-15T11:10:16;4.60;;;1.50;;
76814;SDS011;65768;49.906;19.384;2023-01-15T11:12:54;4.70;;;1.40;;
76814;SDS011;65768;49.906;19.384;2023-01-15T11:15:45;2.20;;;1.10;;
76814;SDS011;65768;49.906;19.384;2023-01-15T11:18:35;4.60;;;1.90;;
76814;SDS011;65768;49.906;19.384;2023-01-15T11:21:26;3.10;;;1.40;;
76814;SDS011;65768;49.906;19.384;2023-01-15T11:23:55;3.80;;;1.40;;
76814;SDS011;65768;49.906;19.384;2023-01-15T11:26:27;3.40;;;1.20;;
76814;SDS011;65768;49.906;19.384;2023-01-15T11:28:58;4.00;;;1.70;;
76814;SDS011;65768;49.906;19.384;2023-01-15T11:31:39;3.30;;;1.40;;
76814;SDS011;65768;49.906;19.384;2023-01-15T11:34:18;3.30;;;1.10;;
76814;SDS011;65768;49.906;19.384;2023-01-15T11:36:59;3.20;;;1.20;;
76814;SDS011;65768;49.906;19.384;2023-01-15T11:39:29;3.10;;;1.40;;
76814;SDS011;65768;49.906;19.384;2023-01-15T11:42:02;4.90;;;1.30;;
76814;SDS011;65768;49.906;19.384;2023-01-15T11:44:55;3.70;;;1.50;;
76814;SDS011;65768;49.906;19.384;2023-01-15T11:47:52;2.60;;;1.20;;
76814;SDS011;65768;49.906;19.384;2023-01-15T11:50:51;4.00;;;1.50;;
76814;SDS011;65768;49.906;19.384;2023-01-15T11:53:27;4.30;;;1.30;;
76814;SDS011;65768;49.906;19.384;2023-01-15T11:56:01;4.00;;;1.30;;
76814;SDS011;65768;49.906;19.384;2023-01-15T11:58:38;4.30;;;1.50;;
76814;SDS011;65768;49.906;19.384;2023-01-15T12:01:29;3.30;;;1.30;;
76814;SDS011;65768;49.906;19.384;2023-01-15T12:04:21;2.80;;;0.90;;
76814;SDS011;65768;49.906;19.384;2023-01-15T12:06:57;3.10;;;1.40;;
76814;SDS011;65768;49.906;19.384;2023-01-15T12:12:16;2.90;;;1.20;;
76814;SDS011;65768;49.906;19.384;2023-01-15T12:15:26;2.10;;;1.10;;
76814;SDS011;65768;49.906;19.384;2023-01-15T12:21:23;3.60;;;1.40;;
76814;SDS011;65768;49.906;19.384;2023-01-15T12:24:02;2.90;;;1.00;;
76814;SDS011;65768;49.906;19.384;2023-01-15T12:38:59;3.00;;;1.30;;
76814;SDS011;65768;49.906;19.384;2023-01-15T12:41:35;2.40;;;1.30;;
76814;SDS011;65768;49.906;19.384;2023-01-15T12:44:45;2.70;;;1.40;;
76814;SDS011;65768;49.906;19.384;2023-01-15T12:47:44;2.80;;;1.30;;
76814;SDS011;65768;49.906;19.384;2023-01-15T12:53:05;3.40;;;1.20;;
76814;SDS011;65768;49.906;19.384;2023-01-15T12:55:39;3.40;;;1.40;;
76814;SDS011;65768;49.906;19.384;2023-01-15T12:58:16;3.00;;;1.30;;
76814;SDS011;65768;49.906;19.384;2023-01-15T13:01:03;3.10;;;1.20;;
76814;SDS011;65768;49.906;19.384;2023-01-15T13:06:43;3.30;;;1.50;;
76814;SDS011;65768;49.906;19.384;2023-01-15T13:09:29;2.70;;;1.30;;
76814;SDS011;65768;49.906;19.384;2023-01-15T13:12:14;3.40;;;1.30;;
76814;SDS011;65768;49.906;19.384;2023-01-15T13:14:44;2.30;;;1.00;;
76814;SDS011;65768;49.906;19.384;2023-01-15T13:17:18;3.00;;;1.80;;
76814;SDS011;65768;49.906;19.384;2023-01-15T13:20:13;2.80;;;1.40;;
76814;SDS011;65768;49.906;19.384;2023-01-15T13:25:57;2.80;;;1.40;;
76814;SDS011;65768;49.906;19.384;2023-01-15T13:31:58;3.90;;;1.90;;
76814;SDS011;65768;49.906;19.384;2023-01-15T13:34:32;3.40;;;1.60;;
76814;SDS011;65768;49.906;19.384;2023-01-15T13:37:03;4.30;;;1.60;;
76814;SDS011;65768;49.906;19.384;2023-01-15T13:39:40;2.40;;;1.20;;
76814;SDS011;65768;49.906;19.384;2023-01-15T13:45:21;3.40;;;1.60;;
76814;SDS011;65768;49.906;19.384;2023-01-15T13:48:03;3.20;;;1.40;;
76814;SDS011;65768;49.906;19.384;2023-01-15T13:53:33;4.90;;;1.70;;
76814;SDS011;65768;49.906;19.384;2023-01-15T13:56:11;4.10;;;1.80;;
76814;SDS011;65768;49.906;19.384;2023-01-15T13:59:05;2.70;;;1.70;;
76814;SDS011;65768;49.906;19.384;2023-01-15T14:01:55;2.00;;;1.00;;
76814;SDS011;65768;49.906;19.384;2023-01-15T14:04:35;3.70;;;1.60;;
76814;SDS011;65768;49.906;19.384;2023-01-15T14:07:20;2.20;;;1.00;;
76814;SDS011;65768;49.906;19.384;2023-01-15T14:10:08;4.20;;;1.30;;
76814;SDS011;65768;49.906;19.384;2023-01-15T14:24:01;2.90;;;1.60;;
76814;SDS011;65768;49.906;19.384;2023-01-15T14:26:41;3.10;;;1.70;;
76814;SDS011;65768;49.906;19.384;2023-01-15T14:35:16;4.90;;;2.00;;
76814;SDS011;65768;49.906;19.384;2023-01-15T14:37:51;4.70;;;2.00;;
76814;SDS011;65768;49.906;19.384;2023-01-15T14:40:28;3.50;;;1.40;;
76814;SDS011;65768;49.906;19.384;2023-01-15T14:43:09;4.10;;;1.60;;
76814;SDS011;65768;49.906;19.384;2023-01-15T14:45:45;2.80;;;1.70;;
76814;SDS011;65768;49.906;19.384;2023-01-15T14:48:31;3.70;;;2.00;;
76814;SDS011;65768;49.906;19.384;2023-01-15T14:51:22;2.50;;;1.60;;
76814;SDS011;65768;49.906;19.384;2023-01-15T14:53:58;5.60;;;2.20;;
76814;SDS011;65768;49.906;19.384;2023-01-15T14:56:33;4.60;;;1.90;;
76814;SDS011;65768;49.906;19.384;2023-01-15T14:59:19;3.30;;;1.80;;
76814;SDS011;65768;49.906;19.384;2023-01-15T15:02:01;6.80;;;2.70;;
76814;SDS011;65768;49.906;19.384;2023-01-15T15:04:47;4.90;;;2.10;;
76814;SDS011;65768;49.906;19.384;2023-01-15T15:07:23;4.10;;;1.80;;
76814;SDS011;65768;49.906;19.384;2023-01-15T15:10:04;4.30;;;2.00;;
76814;SDS011;65768;49.906;19.384;2023-01-15T15:15:34;2.40;;;1.40;;
76814;SDS011;65768;49.906;19.384;2023-01-15T15:18:20;5.50;;;1.60;;
76814;SDS011;65768;49.906;19.384;2023-01-15T15:20:59;2.80;;;1.30;;
76814;SDS011;65768;49.906;19.384;2023-01-15T15:23:36;4.60;;;2.00;;
76814;SDS011;65768;49.906;19.384;2023-01-15T15:26:29;4.40;;;2.20;;
76814;SDS011;65768;49.906;19.384;2023-01-15T15:31:33;4.30;;;2.00;;
76814;SDS011;65768;49.906;19.384;2023-01-15T15:39:54;3.60;;;1.20;;
76814;SDS011;65768;49.906;19.384;2023-01-15T15:42:43;2.70;;;1.40;;
76814;SDS011;65768;49.906;19.384;2023-01-15T15:45:36;3.00;;;1.60;;
76814;SDS011;65768;49.906;19.384;2023-01-15T15:48:30;4.20;;;2.00;;
76814;SDS011;65768;49.906;19.384;2023-01-15T15:54:16;2.70;;;1.40;;
76814;SDS011;65768;49.906;19.384;2023-01-15T15:57:11;4.70;;;1.80;;
76814;SDS011;65768;49.906;19.384;2023-01-15T15:59:49;4.60;;;1.90;;
76814;SDS011;65768;49.906;19.384;2023-01-15T16:07:45;4.00;;;2.00;;
76814;SDS011;65768;49.906;19.384;2023-01-15T16:12:48;4.00;;;1.70;;
76814;SDS011;65768;49.906;19.384;2023-01-15T16:15:20;3.20;;;1.70;;
76814;SDS011;65768;49.906;19.384;2023-01-15T16:17:50;4.40;;;1.40;;
76814;SDS011;65768;49.906;19.384;2023-01-15T16:20:19;3.70;;;1.80;;
76814;SDS011;65768;49.906;19.384;2023-01-15T16:23:00;3.60;;;1.90;;
76814;SDS011;65768;49.906;19.384;2023-01-15T16:25:37;3.50;;;1.40;;
76814;SDS011;65768;49.906;19.384;2023-01-15T16:28:33;3.30;;;1.60;;
76814;SDS011;65768;49.906;19.384;2023-01-15T16:31:02;5.50;;;1.80;;
76814;SDS011;65768;49.906;19.384;2023-01-15T16:33:31;4.10;;;2.00;;
76814;SDS011;65768;49.906;19.384;2023-01-15T16:35:59;2.60;;;1.30;;
76814;SDS011;65768;49.906;19.384;2023-01-15T16:38:32;5.40;;;2.10;;
76814;SDS011;65768;49.906;19.384;2023-01-15T16:41:02;4.50;;;1.80;;
76814;SDS011;65768;49.906;19.384;2023-01-15T16:43:31;5.20;;;2.10;;
76814;SDS011;65768;49.906;19.384;2023-01-15T16:46:23;4.60;;;1.90;;
76814;SDS011;65768;49.906;19.384;2023-01-15T16:51:49;3.80;;;2.10;;
76814;SDS011;65768;49.906;19.384;2023-01-15T16:54:39;4.10;;;1.90;;
76814;SDS011;65768;49.906;19.384;2023-01-15T16:57:30;5.30;;;2.30;;
76814;SDS011;65768;49.906;19.384;2023-01-15T17:02:39;3.80;;;2.00;;
76814;SDS011;65768;49.906;19.384;2023-01-15T17:05:13;4.00;;;2.00;;
76814;SDS011;65768;49.906;19.384;2023-01-15T17:07:48;3.80;;;2.20;;
76814;SDS011;65768;49.906;19.384;2023-01-15T17:10:23;3.80;;;1.70;;
76814;SDS011;65768;49.906;19.384;2023-01-15T17:12:53;6.80;;;2.40;;
76814;SDS011;65768;49.906;19.384;2023-01-15T17:17:53;4.40;;;2.00;;
76814;SDS011;65768;49.906;19.384;2023-01-15T17:20:22;3.30;;;1.50;;
76814;SDS011;65768;49.906;19.384;2023-01-15T17:22:54;3.10;;;0.80;;
76814;SDS011;65768;49.906;19.384;2023-01-15T17:25:25;2.20;;;0.90;;
76814;SDS011;65768;49.906;19.384;2023-01-15T17:28:02;5.20;;;2.60;;
76814;SDS011;65768;49.906;19.384;2023-01-15T17:30:31;8.30;;;2.90;;
76814;SDS011;65768;49.906;19.384;2023-01-15T17:33:02;18.90;;;9.80;;
76814;SDS011;65768;49.906;19.384;2023-01-15T17:35:36;10.50;;;4.70;;
76814;SDS011;65768;49.906;19.384;2023-01-15T17:38:08;13.10;;;4.90;;
76814;SDS011;65768;49.906;19.384;2023-01-15T17:40:40;6.40;;;2.50;;
76814;SDS011;65768;49.906;19.384;2023-01-15T17:43:11;10.30;;;3.30;;
76814;SDS011;65768;49.906;19.384;2023-01-15T17:45:41;9.80;;;3.00;;
76814;SDS011;65768;49.906;19.384;2023-01-15T17:48:10;12.60;;;4.30;;
76814;SDS011;65768;49.906;19.384;2023-01-15T17:50:40;5.80;;;2.10;;
76814;SDS011;65768;49.906;19.384;2023-01-15T17:53:08;7.80;;;3.30;;
76814;SDS011;65768;49.906;19.384;2023-01-15T17:55:37;9.90;;;3.30;;
76814;SDS011;65768;49.906;19.384;2023-01-15T17:58:24;11.30;;;4.40;;
76814;SDS011;65768;49.906;19.384;2023-01-15T18:01:16;9.60;;;4.20;;
76814;SDS011;65768;49.906;19.384;2023-01-15T18:04:10;9.60;;;4.00;;
76814;SDS011;65768;49.906;19.384;2023-01-15T18:07:03;10.20;;;4.20;;
76814;SDS011;65768;49.906;19.384;2023-01-15T18:09:32;7.00;;;2.60;;
76814;SDS011;65768;49.906;19.384;2023-01-15T18:12:02;7.30;;;2.50;;
76814;SDS011;65768;49.906;19.384;2023-01-15T18:14:31;7.90;;;2.80;;
76814;SDS011;65768;49.906;19.384;2023-01-15T18:17:00;9.20;;;3.30;;
76814;SDS011;65768;49.906;19.384;2023-01-15T18:19:30;5.70;;;2.50;;
76814;SDS011;65768;49.906;19.384;2023-01-15T18:21:58;6.40;;;3.10;;
76814;SDS011;65768;49.906;19.384;2023-01-15T18:24:26;8.00;;;3.30;;
76814;SDS011;65768;49.906;19.384;2023-01-15T18:26:55;5.50;;;2.70;;
76814;SDS011;65768;49.906;19.384;2023-01-15T18:29:24;6.60;;;2.90;;
76814;SDS011;65768;49.906;19.384;2023-01-15T18:31:53;4.70;;;2.20;;
76814;SDS011;65768;49.906;19.384;2023-01-15T18:34:24;6.00;;;2.60;;
76814;SDS011;65768;49.906;19.384;2023-01-15T18:36:52;6.40;;;2.40;;
76814;SDS011;65768;49.906;19.384;2023-01-15T18:39:21;4.00;;;1.70;;
76814;SDS011;65768;49.906;19.384;2023-01-15T18:41:49;7.40;;;2.90;;
76814;SDS011;65768;49.906;19.384;2023-01-15T18:44:19;5.10;;;2.10;;
76814;SDS011;65768;49.906;19.384;2023-01-15T18:47:10;5.30;;;2.60;;
76814;SDS011;65768;49.906;19.384;2023-01-15T18:49:40;7.90;;;3.10;;
76814;SDS011;65768;49.906;19.384;2023-01-15T18:52:11;3.20;;;1.60;;
76814;SDS011;65768;49.906;19.384;2023-01-15T18:55:00;2.10;;;1.10;;
76814;SDS011;65768;49.906;19.384;2023-01-15T18:57:30;3.80;;;1.60;;
76814;SDS011;65768;49.906;19.384;2023-01-15T19:00:04;4.70;;;2.40;;
76814;SDS011;65768;49.906;19.384;2023-01-15T19:02:36;6.00;;;2.70;;
76814;SDS011;65768;49.906;19.384;2023-01-15T19:05:04;4.50;;;1.80;;
76814;SDS011;65768;49.906;19.384;2023-01-15T19:07:33;5.60;;;2.40;;
76814;SDS011;65768;49.906;19.384;2023-01-15T19:10:05;5.10;;;2.40;;
76814;SDS011;65768;49.906;19.384;2023-01-15T19:12:34;3.70;;;1.60;;
76814;SDS011;65768;49.906;19.384;2023-01-15T19:15:04;3.80;;;1.80;;
76814;SDS011;65768;49.906;19.384;2023-01-15T19:17:55;4.90;;;2.40;;
76814;SDS011;65768;49.906;19.384;2023-01-15T19:20:44;5.80;;;2.00;;
76814;SDS011;65768;49.906;19.384;2023-01-15T19:23:13;3.80;;;1.80;;
76814;SDS011;65768;49.906;19.384;2023-01-15T19:25:42;5.80;;;3.00;;
76814;SDS011;65768;49.906;19.384;2023-01-15T19:28:19;5.00;;;2.50;;
76814;SDS011;65768;49.906;19.384;2023-01-15T19:30:48;5.70;;;3.10;;
76814;SDS011;65768;49.906;19.384;2023-01-15T19:33:36;4.80;;;2.60;;
76814;SDS011;65768;49.906;19.384;2023-01-15T19:36:05;3.80;;;1.80;;
76814;SDS011;65768;49.906;19.384;2023-01-15T19:38:34;4.90;;;2.30;;
76814;SDS011;65768;49.906;19.384;2023-01-15T19:41:10;4.80;;;2.40;;
76814;SDS011;65768;49.906;19.384;2023-01-15T19:43:57;4.90;;;2.30;;
76814;SDS011;65768;49.906;19.384;2023-01-15T19:46:45;6.40;;;3.30;;
76814;SDS011;65768;49.906;19.384;2023-01-15T19:49:39;3.40;;;1.60;;
76814;SDS011;65768;49.906;19.384;2023-01-15T19:52:27;4.40;;;1.70;;
76814;SDS011;65768;49.906;19.384;2023-01-15T19:55:03;5.10;;;2.60;;
76814;SDS011;65768;49.906;19.384;2023-01-15T19:57:38;3.40;;;1.60;;
76814;SDS011;65768;49.906;19.384;2023-01-15T20:00:09;3.50;;;1.50;;
76814;SDS011;65768;49.906;19.384;2023-01-15T20:02:39;4.80;;;1.80;;
76814;SDS011;65768;49.906;19.384;2023-01-15T20:05:09;4.10;;;1.30;;
76814;SDS011;65768;49.906;19.384;2023-01-15T20:07:38;6.50;;;3.10;;
76814;SDS011;65768;49.906;19.384;2023-01-15T20:10:12;6.00;;;3.10;;